Flight Track Log - Related Links

Times and Time Zones

All times are in EDT time to prevent confusion due to time zone crossing. See the SKW5631 flight status page for this flight to view local times or setup timezone preferences in your user account.

Time Position Orientation Groundspeed Altitude Reporting Facility
EDT Latitude Longitude Course Direction KTS MPH feet Rate Location/Type
Thu 10:27:30 PM 37.6333 -122.3667 360° North 162 186 1,000  Level Northern Cal TRACON
Thu 10:28:30 PM 37.6833 -122.3667 360° North 220 253 3,300 2,250 Climbing Northern Cal TRACON
Thu 10:29:30 PM 37.6667 -122.4500 256° West 284 327 5,500 2,450 Climbing Northern Cal TRACON
Thu 10:30:30 PM 37.6000 -122.4667 191° South 304 350 8,200 2,750 Climbing Northern Cal TRACON
Thu 10:31:30 PM 37.5167 -122.4833 189° South 315 362 11,000 2,211 Climbing Northern Cal TRACON
Thu 10:32:24 PM 37.4333 -122.4667 171° South 345 397 12,400 1,263 Climbing Northern Cal TRACON
Thu 10:33:43 PM 37.3375 -122.3622 139° Southeast 380 437 13,800 1,071 Climbing Oakland Center
Thu 10:34:44 PM 37.2511 -122.2619 137° Southeast 419 482 14,900 1,171 Climbing Oakland Center
Thu 10:35:46 PM 37.1603 -122.1589 138° Southeast 439 505 16,200 1,220 Climbing Oakland Center
Thu 10:36:47 PM 37.0678 -122.0525 137° Southeast 451 519 17,400 1,180 Climbing Oakland Center
Thu 10:37:48 PM 36.9744 -121.9436 137° Southeast 458 527 18,600 1,279 Climbing Oakland Center
Thu 10:38:49 PM 36.8606 -121.8139 138° Southeast 462 532 20,000 1,171 Climbing Oakland Center
Thu 10:39:51 PM 36.7664 -121.7125 139° Southeast 471 542 21,000 976 Climbing Oakland Center
Thu 10:40:52 PM 36.6711 -121.6000 137° Southeast 472 543 22,000 885 Climbing Oakland Center
Thu 10:41:53 PM 36.5706 -121.4900 139° Southeast 480 552 22,800 780 Climbing Oakland Center
Thu 10:42:55 PM 36.4725 -121.3769 137° Southeast 481 554 23,600 780 Climbing Oakland Center
Thu 10:43:56 PM 36.3700 -121.2650 139° Southeast 489 563 24,400 787 Climbing Oakland Center
Thu 10:44:57 PM 36.2703 -121.1514 137° Southeast 488 562 25,200 732 Climbing Oakland Center
Thu 10:45:59 PM 36.1483 -121.0153 138° Southeast 491 565 25,900 634 Climbing Oakland Center
Thu 10:47:00 PM 36.0464 -120.9025 138° Southeast 493 567 26,500 689 Climbing Oakland Center
Thu 10:48:01 PM 35.9442 -120.7892 138° Southeast 494 568 27,300 787 Climbing Oakland Center
Thu 10:49:02 PM 35.8414 -120.6753 138° Southeast 496 571 28,100 829 Climbing Oakland Center
Thu 10:50:04 PM 35.7419 -120.5664 138° Southeast 485 558 29,000 878 Climbing Oakland Center
Thu 10:51:05 PM 35.6433 -120.4578 138° Southeast 478 550 29,900 934 Climbing Oakland Center
Thu 10:52:06 PM 35.5450 -120.3508 138° Southeast 470 541 30,900 787 Climbing Oakland Center
Thu 10:53:07 PM 35.4436 -120.2431 139° Southeast 467 537 31,500 541 Climbing Oakland Center
Thu 10:54:08 PM 35.3433 -120.1325 138° Southeast 470 541 32,000 488 Climbing Oakland Center
Thu 10:55:10 PM 35.2439 -120.0267 139° Southeast 471 542 32,500 -98 Climbing Oakland Center
Thu 10:56:11 PM 35.1417 -119.9181 139° Southeast 484 557 31,800 -1,770 Descending Oakland Center
Thu 10:57:12 PM 35.0406 -119.7944 135° Southeast 508 585 28,900 -2,902 Descending Oakland Center
Thu 10:58:13 PM 34.9467 -119.6667 132° Southeast 506 582 25,900 -2,829 Descending Oakland Center
Thu 10:59:15 PM 34.8567 -119.5475 133° Southeast 493 567 23,100 -3,171 Descending Oakland Center
Thu 11:00:16 PM 34.7528 -119.4069 132° Southeast 477 549 19,400 -3,344 Descending Oakland Center
Thu 11:01:17 PM 34.6667 -119.2931 133° Southeast 466 536 16,300 -3,082 Descending Oakland Center
Thu 11:02:42 PM 34.5514 -119.1425 133° Southeast 443 510 11,900 -2,163 Descending Los Angeles Center
Thu 11:03:44 PM 34.4811 -119.0467 132° Southeast 368 423 11,000 -823 Descending Los Angeles Center
Thu 11:04:46 PM 34.4206 -118.9683 133° Southeast 318 366 10,200 -1,065 Descending Los Angeles Center
Thu 11:05:48 PM 34.3650 -118.8908 131° Southeast 307 353 8,800 -1,171 Descending Los Angeles Center
Thu 11:06:49 PM 34.3069 -118.8203 135° Southeast 298 343 7,800 -1,073 Descending Los Angeles Center
Thu 11:07:51 PM 34.2494 -118.7525 136° Southeast 288 331 6,600 -1,306 Descending Los Angeles Center
Thu 11:08:53 PM 34.1861 -118.6678 132° Southeast 285 328 5,100 -968 Descending Los Angeles Center
Thu 11:09:55 PM 34.1483 -118.6050 126° Southeast 254 292 4,600 -634 Descending Los Angeles Center
Thu 11:10:56 PM 34.1456 -118.5333 93° East 226 260 3,800 -732 Descending Los Angeles Center
Thu 11:11:58 PM 34.1369 -118.4692 99° East 202 232 3,100 -581 Descending Los Angeles Center
Thu 11:13:00 PM 34.1303 -118.4111 98° East 184 212 2,600 -484 Descending Los Angeles Center
Thu 11:14:02 PM 34.1397 -118.3600 77° East 169 194 2,100 -683 Descending Los Angeles Center
Thu 11:15:03 PM 34.1736 -118.3506 13° North 153 176 1,200 -885 Descending Los Angeles Center

Login

Don't have an account? Register now (free) for customized features, flight alerts, and more!